VTSE/CJM METAR and TAF weather

Enter ICAO airport designator
Station Type Date Time Source
VTSE METAR 2020/12/05 06:00 UTC NOAA

VTSE 050600Z VRB11G21KT 9999 FEW020 29/21 Q1012 NOSIG


Station Type Date Time Source
VTSE Decoded METAR 2020/12/05 06:00 UTC NOAA

Station name not available
Dec 05, 2020 - 01:00 AM EST / 2020.12.05 0600 UTC
Wind: Variable at 13 MPH (11 KT) gusting to 24 MPH (21 KT):0
Visibility: greater than 7 mile(s):0
Sky conditions: mostly clear
Temperature: 84 F (29 C)
Dew Point: 69 F (21 C)
Relative Humidity: 62%
Pressure (altimeter): 29.88 in. Hg (1012 hPa)
ob: VTSE 050600Z VRB11G21KT 9999 FEW020 29/21 Q1012 NOSIG
cycle: 6

Station Type Date Time Source
VTSE TAF 2020/12/05 06:00 UTC NOAA

TAF VTSE 050500Z 0506/0606 04012KT 9999 FEW020
TEMPO 0506/0510 04012G22KT
BECMG 0513/0515 32005KT
BECMG 0601/0603 04010KT

Example: see airport list